sensor_id;sensor_type;location;lat;lon;timestamp;pressure;altitude;pressure_sealevel;temperature;humidity
72896;BME280;61036;53.224;6.554;2024-01-30T00:01:38;99723.00;;;6.55;100.00
72896;BME280;61036;53.224;6.554;2024-01-30T00:04:04;99741.69;;;6.32;100.00
72896;BME280;61036;53.224;6.554;2024-01-30T00:06:30;99719.50;;;6.30;100.00
72896;BME280;61036;53.224;6.554;2024-01-30T00:08:56;99692.03;;;6.39;100.00
72896;BME280;61036;53.224;6.554;2024-01-30T00:11:22;99681.09;;;6.43;100.00
72896;BME280;61036;53.224;6.554;2024-01-30T00:13:51;99665.78;;;6.45;100.00
72896;BME280;61036;53.224;6.554;2024-01-30T00:16:24;99656.47;;;6.37;100.00
72896;BME280;61036;53.224;6.554;2024-01-30T00:18:51;99621.94;;;6.46;100.00
72896;BME280;61036;53.224;6.554;2024-01-30T00:21:17;99605.41;;;6.52;100.00
72896;BME280;61036;53.224;6.554;2024-01-30T00:23:43;99617.19;;;6.38;100.00
72896;BME280;61036;53.224;6.554;2024-01-30T00:26:08;99622.88;;;6.33;100.00
72896;BME280;61036;53.224;6.554;2024-01-30T00:28:34;99605.75;;;6.36;100.00
72896;BME280;61036;53.224;6.554;2024-01-30T00:31:00;99589.16;;;6.31;100.00
72896;BME280;61036;53.224;6.554;2024-01-30T00:33:25;99574.94;;;6.30;100.00
72896;BME280;61036;53.224;6.554;2024-01-30T00:35:50;99556.81;;;6.34;100.00
72896;BME280;61036;53.224;6.554;2024-01-30T00:38:16;99565.94;;;6.20;100.00
72896;BME280;61036;53.224;6.554;2024-01-30T00:40:42;99546.81;;;6.25;100.00
72896;BME280;61036;53.224;6.554;2024-01-30T00:43:07;99522.13;;;6.21;100.00
72896;BME280;61036;53.224;6.554;2024-01-30T00:45:33;99482.56;;;6.36;100.00
72896;BME280;61036;53.224;6.554;2024-01-30T00:47:59;99467.00;;;6.30;100.00
72896;BME280;61036;53.224;6.554;2024-01-30T00:50:24;99460.53;;;6.21;100.00
72896;BME280;61036;53.224;6.554;2024-01-30T00:52:50;99427.19;;;6.25;100.00
72896;BME280;61036;53.224;6.554;2024-01-30T00:55:15;99388.63;;;6.39;100.00
72896;BME280;61036;53.224;6.554;2024-01-30T00:57:41;99383.75;;;6.33;100.00
72896;BME280;61036;53.224;6.554;2024-01-30T01:00:07;99388.13;;;6.23;100.00
72896;BME280;61036;53.224;6.554;2024-01-30T01:02:37;99344.34;;;6.35;100.00
72896;BME280;61036;53.224;6.554;2024-01-30T01:05:05;99346.88;;;6.25;100.00
72896;BME280;61036;53.224;6.554;2024-01-30T01:07:30;99325.72;;;6.22;100.00
72896;BME280;61036;53.224;6.554;2024-01-30T01:09:56;99338.28;;;6.10;100.00
72896;BME280;61036;53.224;6.554;2024-01-30T01:12:22;99305.28;;;6.21;100.00
72896;BME280;61036;53.224;6.554;2024-01-30T01:14:47;99278.53;;;6.21;100.00
72896;BME280;61036;53.224;6.554;2024-01-30T01:17:13;99262.59;;;6.19;100.00
72896;BME280;61036;53.224;6.554;2024-01-30T01:19:38;99242.63;;;6.24;100.00
72896;BME280;61036;53.224;6.554;2024-01-30T01:22:04;99220.22;;;6.25;100.00
72896;BME280;61036;53.224;6.554;2024-01-30T01:24:32;99159.16;;;6.51;100.00
72896;BME280;61036;53.224;6.554;2024-01-30T01:26:58;99193.22;;;6.28;100.00
72896;BME280;61036;53.224;6.554;2024-01-30T01:29:24;99190.94;;;6.23;100.00
72896;BME280;61036;53.224;6.554;2024-01-30T01:31:57;99134.00;;;6.42;100.00
72896;BME280;61036;53.224;6.554;2024-01-30T01:34:24;99140.00;;;6.34;100.00
72896;BME280;61036;53.224;6.554;2024-01-30T01:36:50;99153.97;;;6.17;100.00
72896;BME280;61036;53.224;6.554;2024-01-30T01:39:16;99123.59;;;6.28;100.00
72896;BME280;61036;53.224;6.554;2024-01-30T01:41:42;99105.59;;;6.30;100.00
72896;BME280;61036;53.224;6.554;2024-01-30T01:44:08;99108.66;;;6.25;100.00
72896;BME280;61036;53.224;6.554;2024-01-30T01:46:34;99083.34;;;6.29;100.00
72896;BME280;61036;53.224;6.554;2024-01-30T01:49:02;99064.47;;;6.31;100.00
72896;BME280;61036;53.224;6.554;2024-01-30T01:51:29;99049.66;;;6.27;100.00
72896;BME280;61036;53.224;6.554;2024-01-30T01:53:57;99042.00;;;6.22;100.00
72896;BME280;61036;53.224;6.554;2024-01-30T01:56:24;99026.09;;;6.21;100.00
72896;BME280;61036;53.224;6.554;2024-01-30T01:58:52;98983.88;;;6.34;100.00
72896;BME280;61036;53.224;6.554;2024-01-30T02:01:20;98977.09;;;6.30;100.00
72896;BME280;61036;53.224;6.554;2024-01-30T02:03:47;98972.03;;;6.27;100.00
72896;BME280;61036;53.224;6.554;2024-01-30T02:06:13;98927.66;;;6.34;100.00
72896;BME280;61036;53.224;6.554;2024-01-30T02:08:40;98953.94;;;6.19;100.00
72896;BME280;61036;53.224;6.554;2024-01-30T02:11:05;98933.78;;;6.15;100.00
72896;BME280;61036;53.224;6.554;2024-01-30T02:13:31;98905.50;;;6.22;100.00
72896;BME280;61036;53.224;6.554;2024-01-30T02:15:57;98897.34;;;6.24;100.00
72896;BME280;61036;53.224;6.554;2024-01-30T02:18:22;98863.84;;;6.29;100.00
72896;BME280;61036;53.224;6.554;2024-01-30T02:20:48;98851.41;;;6.28;100.00
72896;BME280;61036;53.224;6.554;2024-01-30T02:23:15;98818.34;;;6.39;100.00
72896;BME280;61036;53.224;6.554;2024-01-30T02:25:43;98807.50;;;6.40;100.00
72896;BME280;61036;53.224;6.554;2024-01-30T02:28:11;98828.34;;;6.37;100.00
72896;BME280;61036;53.224;6.554;2024-01-30T02:30:47;98835.25;;;6.30;100.00
72896;BME280;61036;53.224;6.554;2024-01-30T02:33:13;98836.94;;;6.40;100.00
72896;BME280;61036;53.224;6.554;2024-01-30T02:35:39;98834.41;;;6.39;100.00
72896;BME280;61036;53.224;6.554;2024-01-30T02:38:05;98844.41;;;6.37;100.00
72896;BME280;61036;53.224;6.554;2024-01-30T02:40:31;98868.91;;;6.32;100.00
72896;BME280;61036;53.224;6.554;2024-01-30T02:42:59;98836.38;;;6.47;100.00
72896;BME280;61036;53.224;6.554;2024-01-30T02:45:25;98853.88;;;6.41;100.00
72896;BME280;61036;53.224;6.554;2024-01-30T02:47:51;98855.13;;;6.47;100.00
72896;BME280;61036;53.224;6.554;2024-01-30T02:50:16;98859.91;;;6.43;100.00
72896;BME280;61036;53.224;6.554;2024-01-30T02:52:42;98888.22;;;6.36;100.00
72896;BME280;61036;53.224;6.554;2024-01-30T02:55:11;98894.41;;;6.27;100.00
72896;BME280;61036;53.224;6.554;2024-01-30T02:57:37;98836.66;;;6.44;100.00
72896;BME280;61036;53.224;6.554;2024-01-30T03:00:04;98856.38;;;6.33;100.00
72896;BME280;61036;53.224;6.554;2024-01-30T03:02:31;98823.28;;;6.44;100.00
72896;BME280;61036;53.224;6.554;2024-01-30T03:04:57;98810.59;;;6.46;100.00
72896;BME280;61036;53.224;6.554;2024-01-30T03:07:22;98804.56;;;6.53;100.00
72896;BME280;61036;53.224;6.554;2024-01-30T03:09:48;98823.59;;;6.50;100.00
72896;BME280;61036;53.224;6.554;2024-01-30T03:12:13;98838.50;;;6.43;100.00
72896;BME280;61036;53.224;6.554;2024-01-30T03:14:39;98824.72;;;6.48;100.00
72896;BME280;61036;53.224;6.554;2024-01-30T03:17:04;98858.50;;;6.39;100.00
72896;BME280;61036;53.224;6.554;2024-01-30T03:19:30;98870.34;;;6.36;100.00
72896;BME280;61036;53.224;6.554;2024-01-30T03:21:56;98856.41;;;6.43;100.00
72896;BME280;61036;53.224;6.554;2024-01-30T03:24:21;98868.22;;;6.40;100.00
72896;BME280;61036;53.224;6.554;2024-01-30T03:26:47;98864.31;;;6.44;100.00
72896;BME280;61036;53.224;6.554;2024-01-30T03:29:13;98857.25;;;6.43;100.00
72896;BME280;61036;53.224;6.554;2024-01-30T03:31:39;98850.50;;;6.49;100.00
72896;BME280;61036;53.224;6.554;2024-01-30T03:34:04;98868.22;;;6.40;100.00
72896;BME280;61036;53.224;6.554;2024-01-30T03:36:30;98858.53;;;6.49;100.00
72896;BME280;61036;53.224;6.554;2024-01-30T03:38:58;98860.47;;;6.47;100.00
72896;BME280;61036;53.224;6.554;2024-01-30T03:41:24;98864.69;;;6.39;100.00
72896;BME280;61036;53.224;6.554;2024-01-30T03:43:49;98854.88;;;6.59;100.00
72896;BME280;61036;53.224;6.554;2024-01-30T03:46:15;98887.25;;;6.47;100.00
72896;BME280;61036;53.224;6.554;2024-01-30T03:48:40;98882.91;;;6.46;100.00
72896;BME280;61036;53.224;6.554;2024-01-30T03:51:06;98856.84;;;6.57;100.00
72896;BME280;61036;53.224;6.554;2024-01-30T03:53:31;98876.69;;;6.45;100.00
72896;BME280;61036;53.224;6.554;2024-01-30T03:55:57;98843.34;;;6.59;100.00
72896;BME280;61036;53.224;6.554;2024-01-30T03:58:22;98857.69;;;6.58;100.00
72896;BME280;61036;53.224;6.554;2024-01-30T04:00:48;98863.31;;;6.55;100.00
72896;BME280;61036;53.224;6.554;2024-01-30T04:03:16;98862.66;;;6.62;100.00
72896;BME280;61036;53.224;6.554;2024-01-30T04:05:42;98872.06;;;6.57;100.00
72896;BME280;61036;53.224;6.554;2024-01-30T04:08:08;98896.03;;;6.58;100.00
72896;BME280;61036;53.224;6.554;2024-01-30T04:10:34;98927.19;;;6.59;100.00
72896;BME280;61036;53.224;6.554;2024-01-30T04:12:59;98930.28;;;6.64;100.00
72896;BME280;61036;53.224;6.554;2024-01-30T04:15:25;98944.84;;;6.62;100.00
72896;BME280;61036;53.224;6.554;2024-01-30T04:17:51;98952.03;;;6.71;100.00
72896;BME280;61036;53.224;6.554;2024-01-30T04:20:17;98919.91;;;6.81;100.00
72896;BME280;61036;53.224;6.554;2024-01-30T04:22:46;98951.91;;;6.82;100.00
72896;BME280;61036;53.224;6.554;2024-01-30T04:25:12;99018.41;;;6.68;100.00
72896;BME280;61036;53.224;6.554;2024-01-30T04:27:38;98975.38;;;7.00;100.00
72896;BME280;61036;53.224;6.554;2024-01-30T04:30:04;99005.28;;;7.05;100.00
72896;BME280;61036;53.224;6.554;2024-01-30T04:32:29;99046.44;;;7.04;100.00
72896;BME280;61036;53.224;6.554;2024-01-30T04:34:55;99089.47;;;7.02;100.00
72896;BME280;61036;53.224;6.554;2024-01-30T04:37:20;99135.88;;;7.03;100.00
72896;BME280;61036;53.224;6.554;2024-01-30T04:39:46;99168.31;;;7.00;100.00
72896;BME280;61036;53.224;6.554;2024-01-30T04:42:11;99201.84;;;6.94;100.00
72896;BME280;61036;53.224;6.554;2024-01-30T04:44:37;99226.75;;;6.85;100.00
72896;BME280;61036;53.224;6.554;2024-01-30T04:47:02;99216.34;;;6.92;100.00
72896;BME280;61036;53.224;6.554;2024-01-30T04:49:28;99239.56;;;6.81;100.00
72896;BME280;61036;53.224;6.554;2024-01-30T04:51:54;99217.28;;;7.02;100.00
72896;BME280;61036;53.224;6.554;2024-01-30T04:54:20;99234.00;;;6.94;100.00
72896;BME280;61036;53.224;6.554;2024-01-30T04:56:45;99225.06;;;7.05;100.00
72896;BME280;61036;53.224;6.554;2024-01-30T04:59:11;99226.25;;;7.22;100.00
72896;BME280;61036;53.224;6.554;2024-01-30T05:01:37;99278.00;;;7.13;100.00
72896;BME280;61036;53.224;6.554;2024-01-30T05:04:03;99287.03;;;7.12;100.00
72896;BME280;61036;53.224;6.554;2024-01-30T05:06:29;99310.78;;;7.16;100.00
72896;BME280;61036;53.224;6.554;2024-01-30T05:08:55;99319.13;;;7.23;100.00
72896;BME280;61036;53.224;6.554;2024-01-30T05:11:20;99317.34;;;7.33;100.00
72896;BME280;61036;53.224;6.554;2024-01-30T05:13:46;99379.47;;;7.17;100.00
72896;BME280;61036;53.224;6.554;2024-01-30T05:16:11;99379.97;;;7.22;100.00
72896;BME280;61036;53.224;6.554;2024-01-30T05:18:37;99384.81;;;7.28;100.00
72896;BME280;61036;53.224;6.554;2024-01-30T05:21:03;99398.78;;;7.32;100.00
72896;BME280;61036;53.224;6.554;2024-01-30T05:23:28;99425.53;;;7.22;100.00
72896;BME280;61036;53.224;6.554;2024-01-30T05:25:54;99433.50;;;7.33;100.00
72896;BME280;61036;53.224;6.554;2024-01-30T05:28:19;99444.38;;;7.32;100.00
72896;BME280;61036;53.224;6.554;2024-01-30T05:30:45;99448.63;;;7.35;100.00
72896;BME280;61036;53.224;6.554;2024-01-30T05:33:10;99457.78;;;7.32;100.00
72896;BME280;61036;53.224;6.554;2024-01-30T05:35:37;99459.22;;;7.36;100.00
72896;BME280;61036;53.224;6.554;2024-01-30T05:38:03;99446.03;;;7.44;100.00
72896;BME280;61036;53.224;6.554;2024-01-30T05:40:30;99498.00;;;7.32;100.00
72896;BME280;61036;53.224;6.554;2024-01-30T05:42:56;99481.44;;;7.27;100.00
72896;BME280;61036;53.224;6.554;2024-01-30T05:45:21;99486.88;;;7.37;100.00
72896;BME280;61036;53.224;6.554;2024-01-30T05:47:48;99526.03;;;7.28;100.00
72896;BME280;61036;53.224;6.554;2024-01-30T05:50:14;99541.53;;;7.24;100.00
72896;BME280;61036;53.224;6.554;2024-01-30T05:52:40;99571.41;;;7.20;100.00
72896;BME280;61036;53.224;6.554;2024-01-30T05:55:06;99561.03;;;7.26;100.00
72896;BME280;61036;53.224;6.554;2024-01-30T05:57:31;99573.84;;;7.12;100.00
72896;BME280;61036;53.224;6.554;2024-01-30T05:59:57;99571.91;;;7.14;100.00
72896;BME280;61036;53.224;6.554;2024-01-30T06:02:22;99575.81;;;7.09;100.00
72896;BME280;61036;53.224;6.554;2024-01-30T06:04:48;99589.00;;;7.01;100.00
72896;BME280;61036;53.224;6.554;2024-01-30T06:07:13;99567.91;;;7.08;100.00
72896;BME280;61036;53.224;6.554;2024-01-30T06:09:39;99573.25;;;6.97;100.00
72896;BME280;61036;53.224;6.554;2024-01-30T06:12:06;99552.66;;;7.08;100.00
72896;BME280;61036;53.224;6.554;2024-01-30T06:14:31;99551.06;;;7.06;100.00
72896;BME280;61036;53.224;6.554;2024-01-30T06:16:58;99555.69;;;7.04;100.00
72896;BME280;61036;53.224;6.554;2024-01-30T06:19:24;99554.00;;;7.03;100.00
72896;BME280;61036;53.224;6.554;2024-01-30T06:21:49;99547.56;;;7.05;100.00
72896;BME280;61036;53.224;6.554;2024-01-30T06:24:14;99552.41;;;7.00;100.00
72896;BME280;61036;53.224;6.554;2024-01-30T06:26:40;99542.78;;;7.09;100.00
72896;BME280;61036;53.224;6.554;2024-01-30T06:29:06;99543.63;;;7.09;100.00
72896;BME280;61036;53.224;6.554;2024-01-30T06:31:33;99540.09;;;7.20;100.00
72896;BME280;61036;53.224;6.554;2024-01-30T06:33:58;99543.25;;;7.25;100.00
72896;BME280;61036;53.224;6.554;2024-01-30T06:36:24;99558.59;;;7.23;100.00
72896;BME280;61036;53.224;6.554;2024-01-30T06:38:49;99589.59;;;7.16;100.00
72896;BME280;61036;53.224;6.554;2024-01-30T06:41:15;99586.03;;;7.27;100.00
72896;BME280;61036;53.224;6.554;2024-01-30T06:43:41;99603.09;;;7.26;100.00
72896;BME280;61036;53.224;6.554;2024-01-30T06:46:07;99619.78;;;7.18;100.00
72896;BME280;61036;53.224;6.554;2024-01-30T06:48:32;99620.88;;;7.27;100.00
72896;BME280;61036;53.224;6.554;2024-01-30T06:50:58;99607.59;;;7.25;100.00
72896;BME280;61036;53.224;6.554;2024-01-30T06:53:23;99614.16;;;7.32;100.00
72896;BME280;61036;53.224;6.554;2024-01-30T06:55:51;99633.28;;;7.39;100.00
72896;BME280;61036;53.224;6.554;2024-01-30T06:58:17;99635.13;;;7.27;100.00
72896;BME280;61036;53.224;6.554;2024-01-30T07:00:42;99639.28;;;7.31;100.00
72896;BME280;61036;53.224;6.554;2024-01-30T07:03:08;99637.06;;;7.37;100.00
72896;BME280;61036;53.224;6.554;2024-01-30T07:05:34;99640.88;;;7.34;100.00
72896;BME280;61036;53.224;6.554;2024-01-30T07:07:59;99644.75;;;7.30;100.00
72896;BME280;61036;53.224;6.554;2024-01-30T07:10:25;99657.44;;;7.28;100.00
72896;BME280;61036;53.224;6.554;2024-01-30T07:12:51;99638.19;;;7.34;100.00
72896;BME280;61036;53.224;6.554;2024-01-30T07:15:16;99638.06;;;7.36;100.00
72896;BME280;61036;53.224;6.554;2024-01-30T07:17:45;99629.66;;;7.40;100.00
72896;BME280;61036;53.224;6.554;2024-01-30T07:20:11;99640.50;;;7.39;100.00
72896;BME280;61036;53.224;6.554;2024-01-30T07:22:36;99640.97;;;7.44;100.00
72896;BME280;61036;53.224;6.554;2024-01-30T07:25:03;99642.91;;;7.42;100.00
72896;BME280;61036;53.224;6.554;2024-01-30T07:27:29;99663.53;;;7.41;100.00
72896;BME280;61036;53.224;6.554;2024-01-30T07:29:54;99648.28;;;7.42;100.00
72896;BME280;61036;53.224;6.554;2024-01-30T07:32:20;99638.03;;;7.47;100.00
72896;BME280;61036;53.224;6.554;2024-01-30T07:34:46;99639.25;;;7.43;100.00
72896;BME280;61036;53.224;6.554;2024-01-30T07:37:11;99635.72;;;7.42;100.00
72896;BME280;61036;53.224;6.554;2024-01-30T07:39:41;99636.22;;;7.36;100.00
72896;BME280;61036;53.224;6.554;2024-01-30T07:42:06;99619.63;;;7.42;100.00
72896;BME280;61036;53.224;6.554;2024-01-30T07:44:32;99597.81;;;7.47;100.00
72896;BME280;61036;53.224;6.554;2024-01-30T07:46:57;99608.06;;;7.42;100.00
72896;BME280;61036;53.224;6.554;2024-01-30T07:49:23;99601.84;;;7.41;100.00
72896;BME280;61036;53.224;6.554;2024-01-30T07:51:48;99516.94;;;7.84;100.00
72896;BME280;61036;53.224;6.554;2024-01-30T07:54:14;99571.22;;;7.76;100.00
72896;BME280;61036;53.224;6.554;2024-01-30T07:56:40;99616.75;;;7.66;100.00
72896;BME280;61036;53.224;6.554;2024-01-30T07:59:12;99613.22;;;7.66;100.00
72896;BME280;61036;53.224;6.554;2024-01-30T08:01:40;99625.47;;;7.59;100.00
72896;BME280;61036;53.224;6.554;2024-01-30T08:04:06;99625.81;;;7.65;100.00
72896;BME280;61036;53.224;6.554;2024-01-30T08:06:32;99628.16;;;7.59;100.00
72896;BME280;61036;53.224;6.554;2024-01-30T08:08:58;99621.63;;;7.72;100.00
72896;BME280;61036;53.224;6.554;2024-01-30T08:11:24;99634.59;;;7.67;100.00
72896;BME280;61036;53.224;6.554;2024-01-30T08:13:55;99619.28;;;7.79;100.00
72896;BME280;61036;53.224;6.554;2024-01-30T08:16:20;99639.81;;;7.69;100.00
72896;BME280;61036;53.224;6.554;2024-01-30T08:18:46;99648.25;;;7.64;100.00
72896;BME280;61036;53.224;6.554;2024-01-30T08:21:12;99628.09;;;7.70;100.00
72896;BME280;61036;53.224;6.554;2024-01-30T08:23:40;99643.94;;;7.73;100.00
72896;BME280;61036;53.224;6.554;2024-01-30T08:26:06;99637.97;;;7.69;100.00
72896;BME280;61036;53.224;6.554;2024-01-30T08:28:32;99650.88;;;7.75;100.00
72896;BME280;61036;53.224;6.554;2024-01-30T08:30:57;99667.38;;;7.71;100.00
72896;BME280;61036;53.224;6.554;2024-01-30T08:33:23;99674.94;;;7.77;100.00
72896;BME280;61036;53.224;6.554;2024-01-30T08:35:48;99680.03;;;7.80;100.00
72896;BME280;61036;53.224;6.554;2024-01-30T08:38:14;99686.84;;;7.84;100.00
72896;BME280;61036;53.224;6.554;2024-01-30T08:40:40;99686.69;;;7.97;100.00
72896;BME280;61036;53.224;6.554;2024-01-30T08:43:05;99689.94;;;8.12;100.00
72896;BME280;61036;53.224;6.554;2024-01-30T08:45:31;99702.78;;;8.08;100.00
72896;BME280;61036;53.224;6.554;2024-01-30T08:47:56;99715.69;;;8.14;100.00
72896;BME280;61036;53.224;6.554;2024-01-30T08:50:22;99742.47;;;8.05;100.00
72896;BME280;61036;53.224;6.554;2024-01-30T08:52:48;99756.38;;;8.10;100.00
72896;BME280;61036;53.224;6.554;2024-01-30T08:55:13;99751.69;;;8.23;100.00
72896;BME280;61036;53.224;6.554;2024-01-30T08:57:39;99770.22;;;8.26;100.00
72896;BME280;61036;53.224;6.554;2024-01-30T09:00:07;99771.81;;;8.29;100.00
72896;BME280;61036;53.224;6.554;2024-01-30T09:02:34;99796.47;;;8.34;100.00
72896;BME280;61036;53.224;6.554;2024-01-30T09:05:00;99796.31;;;8.46;100.00
72896;BME280;61036;53.224;6.554;2024-01-30T09:07:26;99847.88;;;8.18;100.00
72896;BME280;61036;53.224;6.554;2024-01-30T09:09:51;99823.06;;;8.37;100.00
72896;BME280;61036;53.224;6.554;2024-01-30T09:12:17;99828.72;;;8.22;100.00
72896;BME280;61036;53.224;6.554;2024-01-30T09:14:43;99831.97;;;8.37;100.00
72896;BME280;61036;53.224;6.554;2024-01-30T09:17:08;99836.50;;;8.37;100.00
72896;BME280;61036;53.224;6.554;2024-01-30T09:19:34;99826.25;;;8.42;100.00
72896;BME280;61036;53.224;6.554;2024-01-30T09:22:00;99840.53;;;8.31;100.00
72896;BME280;61036;53.224;6.554;2024-01-30T09:24:26;99806.59;;;8.41;100.00
72896;BME280;61036;53.224;6.554;2024-01-30T09:26:52;99785.66;;;8.56;100.00
72896;BME280;61036;53.224;6.554;2024-01-30T09:29:18;99784.53;;;8.70;100.00
72896;BME280;61036;53.224;6.554;2024-01-30T09:31:45;99785.19;;;8.83;100.00
72896;BME280;61036;53.224;6.554;2024-01-30T09:34:11;99794.38;;;9.02;100.00
72896;BME280;61036;53.224;6.554;2024-01-30T09:36:36;99819.78;;;9.09;100.00
72896;BME280;61036;53.224;6.554;2024-01-30T09:39:02;99852.09;;;9.19;100.00
72896;BME280;61036;53.224;6.554;2024-01-30T09:41:29;99853.22;;;9.37;100.00
72896;BME280;61036;53.224;6.554;2024-01-30T09:43:57;99907.75;;;9.18;100.00
72896;BME280;61036;53.224;6.554;2024-01-30T09:46:26;99910.88;;;9.23;100.00
72896;BME280;61036;53.224;6.554;2024-01-30T09:48:55;99908.59;;;9.19;100.00
72896;BME280;61036;53.224;6.554;2024-01-30T09:51:23;99921.53;;;9.25;100.00
72896;BME280;61036;53.224;6.554;2024-01-30T09:53:50;99901.13;;;9.22;100.00
72896;BME280;61036;53.224;6.554;2024-01-30T09:56:16;99875.88;;;9.34;100.00
72896;BME280;61036;53.224;6.554;2024-01-30T09:58:42;99874.03;;;9.35;100.00
72896;BME280;61036;53.224;6.554;2024-01-30T10:01:07;99830.38;;;9.52;100.00
72896;BME280;61036;53.224;6.554;2024-01-30T10:03:33;99821.69;;;9.70;100.00
72896;BME280;61036;53.224;6.554;2024-01-30T10:05:59;99834.72;;;9.74;100.00
72896;BME280;61036;53.224;6.554;2024-01-30T10:08:26;99844.81;;;9.72;100.00
72896;BME280;61036;53.224;6.554;2024-01-30T10:10:52;99844.34;;;9.67;100.00
72896;BME280;61036;53.224;6.554;2024-01-30T10:13:18;99840.50;;;9.60;100.00
72896;BME280;61036;53.224;6.554;2024-01-30T10:15:44;99788.97;;;9.74;100.00
72896;BME280;61036;53.224;6.554;2024-01-30T10:18:10;99768.22;;;9.96;100.00
72896;BME280;61036;53.224;6.554;2024-01-30T10:20:36;99792.75;;;10.02;100.00
72896;BME280;61036;53.224;6.554;2024-01-30T10:23:02;99836.03;;;9.80;100.00
72896;BME280;61036;53.224;6.554;2024-01-30T10:25:29;99815.78;;;9.85;100.00
72896;BME280;61036;53.224;6.554;2024-01-30T10:27:57;99811.00;;;9.89;100.00
72896;BME280;61036;53.224;6.554;2024-01-30T10:30:24;99797.25;;;9.92;100.00
72896;BME280;61036;53.224;6.554;2024-01-30T10:32:50;99788.47;;;9.90;100.00
72896;BME280;61036;53.224;6.554;2024-01-30T10:35:17;99796.50;;;9.80;100.00
72896;BME280;61036;53.224;6.554;2024-01-30T10:37:48;99777.16;;;9.96;100.00
72896;BME280;61036;53.224;6.554;2024-01-30T10:40:15;99783.47;;;9.85;100.00
72896;BME280;61036;53.224;6.554;2024-01-30T10:42:45;99779.78;;;9.87;100.00
72896;BME280;61036;53.224;6.554;2024-01-30T10:45:13;99781.91;;;9.83;100.00
72896;BME280;61036;53.224;6.554;2024-01-30T10:47:49;99768.06;;;9.88;100.00
72896;BME280;61036;53.224;6.554;2024-01-30T10:50:15;99770.28;;;9.82;100.00
72896;BME280;61036;53.224;6.554;2024-01-30T10:52:41;99791.25;;;9.79;100.00
72896;BME280;61036;53.224;6.554;2024-01-30T10:55:10;99782.63;;;9.85;100.00
72896;BME280;61036;53.224;6.554;2024-01-30T10:57:37;99786.75;;;9.89;100.00
72896;BME280;61036;53.224;6.554;2024-01-30T11:00:07;99787.38;;;10.02;100.00
72896;BME280;61036;53.224;6.554;2024-01-30T11:02:40;99784.81;;;10.11;100.00
72896;BME280;61036;53.224;6.554;2024-01-30T11:05:07;99805.78;;;9.97;100.00
72896;BME280;61036;53.224;6.554;2024-01-30T11:07:33;99804.94;;;9.97;100.00
72896;BME280;61036;53.224;6.554;2024-01-30T11:10:00;99810.91;;;10.00;100.00
72896;BME280;61036;53.224;6.554;2024-01-30T11:12:32;99825.22;;;10.11;100.00
72896;BME280;61036;53.224;6.554;2024-01-30T11:15:09;99832.06;;;10.15;100.00
72896;BME280;61036;53.224;6.554;2024-01-30T11:20:11;99847.22;;;10.06;100.00
72896;BME280;61036;53.224;6.554;2024-01-30T11:22:47;99852.16;;;10.11;100.00
72896;BME280;61036;53.224;6.554;2024-01-30T11:25:17;99899.44;;;10.15;100.00
72896;BME280;61036;53.224;6.554;2024-01-30T11:27:45;99946.28;;;10.02;100.00
72896;BME280;61036;53.224;6.554;2024-01-30T11:30:30;99938.78;;;10.27;100.00
72896;BME280;61036;53.224;6.554;2024-01-30T11:35:32;100020.50;;;9.95;100.00
72896;BME280;61036;53.224;6.554;2024-01-30T11:37:59;100048.44;;;9.94;100.00
72896;BME280;61036;53.224;6.554;2024-01-30T11:40:29;100053.31;;;10.00;100.00
72896;BME280;61036;53.224;6.554;2024-01-30T11:42:58;100067.81;;;9.88;100.00
72896;BME280;61036;53.224;6.554;2024-01-30T11:45:24;100077.72;;;9.88;100.00
72896;BME280;61036;53.224;6.554;2024-01-30T11:47:50;100104.63;;;9.99;100.00
72896;BME280;61036;53.224;6.554;2024-01-30T11:50:16;100123.97;;;9.93;100.00
72896;BME280;61036;53.224;6.554;2024-01-30T11:52:42;100157.81;;;9.74;100.00
72896;BME280;61036;53.224;6.554;2024-01-30T11:55:09;100130.94;;;9.95;100.00
72896;BME280;61036;53.224;6.554;2024-01-30T11:57:35;100160.25;;;9.77;100.00
72896;BME280;61036;53.224;6.554;2024-01-30T12:00:06;100146.53;;;10.13;100.00
72896;BME280;61036;53.224;6.554;2024-01-30T12:02:42;100174.91;;;9.96;100.00
72896;BME280;61036;53.224;6.554;2024-01-30T12:05:08;100181.25;;;9.95;100.00
72896;BME280;61036;53.224;6.554;2024-01-30T12:07:34;100205.44;;;9.74;100.00
72896;BME280;61036;53.224;6.554;2024-01-30T12:10:01;100198.00;;;9.66;100.00
72896;BME280;61036;53.224;6.554;2024-01-30T12:12:27;100204.84;;;9.59;100.00
72896;BME280;61036;53.224;6.554;2024-01-30T12:14:54;100199.09;;;9.52;100.00
72896;BME280;61036;53.224;6.554;2024-01-30T12:17:31;100174.47;;;9.68;100.00
72896;BME280;61036;53.224;6.554;2024-01-30T12:20:07;100215.88;;;9.45;100.00
72896;BME280;61036;53.224;6.554;2024-01-30T12:22:42;100214.41;;;9.63;100.00
72896;BME280;61036;53.224;6.554;2024-01-30T12:27:39;100253.31;;;9.48;100.00
72896;BME280;61036;53.224;6.554;2024-01-30T12:30:08;100273.81;;;9.26;100.00
72896;BME280;61036;53.224;6.554;2024-01-30T12:32:39;100239.84;;;9.48;100.00
72896;BME280;61036;53.224;6.554;2024-01-30T12:37:39;100251.44;;;9.59;100.00
72896;BME280;61036;53.224;6.554;2024-01-30T12:40:05;100262.84;;;9.63;100.00
72896;BME280;61036;53.224;6.554;2024-01-30T12:42:35;100311.16;;;9.42;100.00
72896;BME280;61036;53.224;6.554;2024-01-30T12:45:05;100336.09;;;9.44;100.00
72896;BME280;61036;53.224;6.554;2024-01-30T12:47:31;100348.38;;;9.48;100.00
72896;BME280;61036;53.224;6.554;2024-01-30T12:49:57;100363.16;;;9.43;100.00
72896;BME280;61036;53.224;6.554;2024-01-30T12:52:23;100358.16;;;9.49;100.00
72896;BME280;61036;53.224;6.554;2024-01-30T12:54:49;100357.56;;;9.57;100.00
72896;BME280;61036;53.224;6.554;2024-01-30T12:57:16;100357.94;;;9.64;100.00
72896;BME280;61036;53.224;6.554;2024-01-30T12:59:43;100365.22;;;9.50;100.00
72896;BME280;61036;53.224;6.554;2024-01-30T13:02:08;100339.69;;;9.67;100.00
72896;BME280;61036;53.224;6.554;2024-01-30T13:04:34;100339.31;;;9.60;100.00